Cherry Spring, Texas
Current Conditions -  °F | °C
As of 9:35 PM on Saturday 24 Jan 2015 (Local Time) from KT82 Reporting Station
Clear Clear  
Wind Chill: 44°   Ceiling: Unl
Heat Index: 44°   Visibility: 10mi
Dew Point: 36°   Wind: 3mph
Humidity: 74%   Direction: 260°W
Pressure: 30.1"   Gusts: NA
Location:  30.3069°N, 98.8978°W
Report Text: KT82 250335Z AUTO 26003KT 10SM CLR 06/02 A3010 RMK AO2 T00640021
Loading
Personal Weather Stations






























Interactive Weather Map New forecast layout! Learn more

10-Day Weather Forecast

Advertisements
Track Severe Weather on mobile